Zhe Pu Tuo 2012 — BKRA5 — position and weather

sailwx.info

Track history (hours):
 
Tides and Currents Weather Stations Pressure Air Temp Water Temp Dewpoint Dewpoint Depression Visibility Wind Speed Wind Dir Waves Ship Positions

Zhe Pu Tuo 2012

Last reported at 2014-Jul-24 12:06 UTC. Time now 2014-Jul-24 14:41 UTC.
Position N 29°58' E 122°15'.

Length 57 m; draft 4 m.

MMSI: 412763040.

Date/timePositionNaut miles runAvg speedWind from/ knotsBaromVisibWave heightAir tempDewpointWater temp
2014-Jul-24 12:06N 29°58' E 122°15'0 0.0
2014-Jul-24 11:33N 29°58' E 122°15'0 0.0
2014-Jul-24 10:33N 29°58' E 122°15'0 0.0
2014-Jul-24 03:32N 29°58' E 122°15'0 0.0
2014-Jul-24 02:33N 29°58' E 122°15'0 0.0
2014-Jul-24 01:33N 29°58' E 122°15'0 0.0
2014-Jul-23 11:33N 29°58' E 122°15'0 0.0
2014-Jul-23 10:33N 29°58' E 122°15'0 0.0
2014-Jul-23 09:33N 29°58' E 122°15'0 0.0
2014-Jul-23 08:33N 29°58' E 122°15'0 0.0
2014-Jul-23 07:33N 29°58' E 122°15'0 0.0
2014-Jul-23 06:33N 29°58' E 122°15'0 0.0
2014-Jul-23 05:33N 29°58' E 122°15'0 0.1
2014-Jul-23 04:33N 29°58' E 122°15'0 0.0
2014-Jul-23 03:33N 29°58' E 122°15'0 0.1
2014-Jul-23 02:34N 29°58' E 122°15'0 0.0
2014-Jul-23 01:34N 29°58' E 122°15'0 0.0
2014-Jul-22 11:33N 29°58' E 122°15'0 0.0
2014-Jul-22 10:33N 29°58' E 122°15'0 0.0
2014-Jul-22 09:33N 29°58' E 122°15'0 0.0
2014-Jul-22 08:33N 29°58' E 122°15'0 0.0
2014-Jul-22 07:33N 29°58' E 122°15'0 0.0
2014-Jul-22 06:33N 29°58' E 122°15'0 0.0
2014-Jul-22 05:33N 29°58' E 122°15'0 0.1
2014-Jul-22 04:33N 29°58' E 122°15'0 0.0
2014-Jul-22 03:33N 29°58' E 122°15'3 2.6
2014-Jul-22 02:33N 29°56' E 122°17'8 7.8
2014-Jul-22 01:33N 29°50' E 122°23'9 8.9
2014-Jul-22 00:33N 29°42' E 122°19'1110.3
2014-Jul-21 23:31N 29°34' E 122°11'320 9.0
2014-Jul-20 12:04N 24°54' E 119°16'5 8.9
2014-Jul-20 11:29N 24°51' E 119°11'8 9.0
2014-Jul-20 10:33N 24°46' E 119°04'9 8.8
2014-Jul-20 09:32N 24°39' E 118°57'12 9.1
2014-Jul-20 08:12N 24°32' E 118°47'8 9.4
2014-Jul-20 07:21N 24°27' E 118°40'12 9.5
2014-Jul-20 06:07N 24°19' E 118°30'6 9.7
2014-Jul-20 05:29N 24°15' E 118°25'9 9.6
2014-Jul-20 04:33N 24°09' E 118°18'10 9.5
2014-Jul-20 03:33N 24°02' E 118°11'9 8.8
2014-Jul-20 02:33N 23°56' E 118°03'9 8.5
2014-Jul-20 01:33N 23°51' E 117°56'9 8.7
2014-Jul-20 00:33N 23°45' E 117°49'9 8.8
2014-Jul-19 23:33N 23°39' E 117°42'10 9.5
2014-Jul-19 22:31N 23°32' E 117°34'3410.7
2014-Jul-19 19:22N 23°10' E 117°06'910.6
2014-Jul-19 18:32N 23°06' E 116°57'1510.6
2014-Jul-19 17:10N 22°60' E 116°43'610.7
2014-Jul-19 16:33N 22°57' E 116°37'158 9.3
2014-Jul-18 23:33N 22°08' E 113°55'9 8.8
2014-Jul-18 22:33N 22°15' E 113°49'10 9.7
2014-Jul-18 21:29N 22°24' E 113°53'4 3.9
2014-Jul-18 20:31N 22°28' E 113°52'0 0.0
2014-Jul-18 19:33N 22°28' E 113°52'0 0.0
2014-Jul-18 18:33N 22°28' E 113°52'0 0.0
2014-Jul-18 17:33N 22°28' E 113°52'0 0.0
2014-Jul-18 16:33N 22°28' E 113°52'0 0.0
2014-Jul-18 15:32N 22°28' E 113°52'0 0.0
2014-Jul-18 14:31N 22°28' E 113°52'0 0.0
2014-Jul-18 13:29N 22°28' E 113°52'0 0.0
2014-Jul-18 11:31N 22°28' E 113°52'0 0.0
2014-Jul-18 09:33N 22°28' E 113°52'0 0.0
2014-Jul-18 08:33N 22°28' E 113°52'0 0.1
2014-Jul-18 07:33N 22°28' E 113°52'0 0.0
2014-Jul-18 06:33N 22°28' E 113°52'0 0.1
2014-Jul-18 05:33N 22°28' E 113°52'0 0.0
2014-Jul-18 04:33N 22°28' E 113°52'0 0.1
2014-Jul-18 03:33N 22°28' E 113°52'0 0.1
2014-Jul-18 02:33N 22°28' E 113°52'0 0.0
2014-Jul-18 01:33N 22°28' E 113°52'0 0.0
2014-Jul-18 00:33N 22°28' E 113°52'0 0.0
2014-Jul-17 23:09N 22°28' E 113°52'0 0.0
2014-Jul-17 21:31N 22°28' E 113°52'0 0.1
2014-Jul-17 20:33N 22°28' E 113°52'0 0.1
2014-Jul-17 19:32N 22°28' E 113°52'0 0.0
2014-Jul-17 18:33N 22°28' E 113°52'0 0.0
2014-Jul-17 17:28N 22°28' E 113°52'0 0.0
2014-Jul-17 16:30N 22°28' E 113°52'0 0.1
2014-Jul-17 15:33N 22°28' E 113°52'0 0.0
2014-Jul-17 14:32N 22°28' E 113°52'0 0.1
2014-Jul-17 13:30N 22°28' E 113°52'0 0.0
2014-Jul-17 11:22N 22°28' E 113°52'0 0.0
2014-Jul-17 09:33N 22°28' E 113°52'0 0.0
2014-Jul-17 08:32N 22°28' E 113°52'0 0.0
2014-Jul-17 07:33N 22°28' E 113°52'0 0.0
2014-Jul-17 06:33N 22°28' E 113°52'0 0.0
2014-Jul-17 05:33N 22°28' E 113°52'0 0.0
2014-Jul-17 04:33N 22°28' E 113°52'0 0.0
2014-Jul-17 03:33N 22°28' E 113°52'0 0.0
2014-Jul-17 02:33N 22°28' E 113°52'0 0.0
2014-Jul-17 01:32N 22°28' E 113°52'0 0.1
2014-Jul-17 00:33N 22°28' E 113°52'0 0.0
2014-Jul-16 19:18N 22°28' E 113°52'0 0.0
2014-Jul-16 18:03N 22°28' E 113°52'0 0.0
2014-Jul-16 17:29N 22°28' E 113°52'0 0.0
2014-Jul-16 13:31N 22°28' E 113°52'0 0.0
2014-Jul-16 10:14N 22°28' E 113°52'0 0.0
2014-Jul-16 09:33N 22°28' E 113°52'0 0.0
2014-Jul-16 08:33N 22°28' E 113°52'0 0.0
2014-Jul-16 07:33N 22°28' E 113°52'0 0.0
2014-Jul-16 06:33N 22°28' E 113°52'0 0.0
2014-Jul-16 05:33N 22°28' E 113°52'0 0.0
2014-Jul-16 04:33N 22°28' E 113°52'0 0.1
2014-Jul-16 03:33N 22°28' E 113°52'0 0.0
2014-Jul-16 02:33N 22°28' E 113°52'0 0.0
2014-Jul-16 01:33N 22°28' E 113°52'0 0.0
2014-Jul-16 00:33N 22°28' E 113°52'0 0.0
2014-Jul-15 23:16N 22°28' E 113°52'0 0.0
2014-Jul-15 22:10N 22°28' E 113°52'0 0.0
2014-Jul-15 18:26N 22°28' E 113°52'0 0.1
2014-Jul-15 17:27N 22°28' E 113°52'0 0.0
2014-Jul-15 16:04N 22°28' E 113°52'0 0.0
2014-Jul-15 09:33N 22°28' E 113°52'0 0.0
2014-Jul-15 08:30N 22°28' E 113°52'0 0.0
2014-Jul-15 07:32N 22°28' E 113°52'0 0.0
2014-Jul-15 06:33N 22°28' E 113°52'0 0.0
2014-Jul-15 05:33N 22°28' E 113°52'0 0.0
2014-Jul-15 04:33N 22°28' E 113°52'0 0.0
2014-Jul-15 03:33N 22°28' E 113°52'0 0.1
2014-Jul-15 02:33N 22°28' E 113°52'0 0.0
2014-Jul-15 01:33N 22°28' E 113°52'0 0.0
2014-Jul-15 00:33N 22°28' E 113°52'0 0.1
2014-Jul-14 23:28N 22°28' E 113°52'0 0.0
2014-Jul-14 12:06N 22°28' E 113°52'  
Track history (hours):
 
Tides and Currents Weather Stations Pressure Air Temp Water Temp Dewpoint Dewpoint Depression Visibility Wind Speed Wind Dir Waves Ship Positions

Zhe Pu Tuo 2012

Last reported at 2014-Jul-24 12:06 UTC. Time now 2014-Jul-24 14:41 UTC.
Position N 29°58' E 122°15'.

Length 57 m; draft 4 m.

MMSI: 412763040.

Date/timePositionNaut miles runAvg speedWind from/ knotsBaromVisibWave heightAir tempDewpointWater temp
2014-Jul-24 12:06N 29°58' E 122°15'0 0.0
2014-Jul-24 11:33N 29°58' E 122°15'0 0.0
2014-Jul-24 10:33N 29°58' E 122°15'0 0.0
2014-Jul-24 03:32N 29°58' E 122°15'0 0.0
2014-Jul-24 02:33N 29°58' E 122°15'0 0.0
2014-Jul-24 01:33N 29°58' E 122°15'0 0.0
2014-Jul-23 11:33N 29°58' E 122°15'0 0.0
2014-Jul-23 10:33N 29°58' E 122°15'0 0.0
2014-Jul-23 09:33N 29°58' E 122°15'0 0.0
2014-Jul-23 08:33N 29°58' E 122°15'0 0.0
2014-Jul-23 07:33N 29°58' E 122°15'0 0.0
2014-Jul-23 06:33N 29°58' E 122°15'0 0.0
2014-Jul-23 05:33N 29°58' E 122°15'0 0.1
2014-Jul-23 04:33N 29°58' E 122°15'0 0.0
2014-Jul-23 03:33N 29°58' E 122°15'0 0.1
2014-Jul-23 02:34N 29°58' E 122°15'0 0.0
2014-Jul-23 01:34N 29°58' E 122°15'0 0.0
2014-Jul-22 11:33N 29°58' E 122°15'0 0.0
2014-Jul-22 10:33N 29°58' E 122°15'0 0.0
2014-Jul-22 09:33N 29°58' E 122°15'0 0.0
2014-Jul-22 08:33N 29°58' E 122°15'0 0.0
2014-Jul-22 07:33N 29°58' E 122°15'0 0.0
2014-Jul-22 06:33N 29°58' E 122°15'0 0.0
2014-Jul-22 05:33N 29°58' E 122°15'0 0.1
2014-Jul-22 04:33N 29°58' E 122°15'0 0.0
2014-Jul-22 03:33N 29°58' E 122°15'3 2.6
2014-Jul-22 02:33N 29°56' E 122°17'8 7.8
2014-Jul-22 01:33N 29°50' E 122°23'9 8.9
2014-Jul-22 00:33N 29°42' E 122°19'1110.3
2014-Jul-21 23:31N 29°34' E 122°11'320 9.0
2014-Jul-20 12:04N 24°54' E 119°16'5 8.9
2014-Jul-20 11:29N 24°51' E 119°11'8 9.0
2014-Jul-20 10:33N 24°46' E 119°04'9 8.8
2014-Jul-20 09:32N 24°39' E 118°57'12 9.1
2014-Jul-20 08:12N 24°32' E 118°47'8 9.4
2014-Jul-20 07:21N 24°27' E 118°40'12 9.5
2014-Jul-20 06:07N 24°19' E 118°30'6 9.7
2014-Jul-20 05:29N 24°15' E 118°25'9 9.6
2014-Jul-20 04:33N 24°09' E 118°18'10 9.5
2014-Jul-20 03:33N 24°02' E 118°11'9 8.8
2014-Jul-20 02:33N 23°56' E 118°03'9 8.5
2014-Jul-20 01:33N 23°51' E 117°56'9 8.7
2014-Jul-20 00:33N 23°45' E 117°49'9 8.8
2014-Jul-19 23:33N 23°39' E 117°42'10 9.5
2014-Jul-19 22:31N 23°32' E 117°34'3410.7
2014-Jul-19 19:22N 23°10' E 117°06'910.6
2014-Jul-19 18:32N 23°06' E 116°57'1510.6
2014-Jul-19 17:10N 22°60' E 116°43'610.7
2014-Jul-19 16:33N 22°57' E 116°37'158 9.3
2014-Jul-18 23:33N 22°08' E 113°55'9 8.8
2014-Jul-18 22:33N 22°15' E 113°49'10 9.7
2014-Jul-18 21:29N 22°24' E 113°53'4 3.9
2014-Jul-18 20:31N 22°28' E 113°52'0 0.0
2014-Jul-18 19:33N 22°28' E 113°52'0 0.0
2014-Jul-18 18:33N 22°28' E 113°52'0 0.0
2014-Jul-18 17:33N 22°28' E 113°52'0 0.0
2014-Jul-18 16:33N 22°28' E 113°52'0 0.0
2014-Jul-18 15:32N 22°28' E 113°52'0 0.0
2014-Jul-18 14:31N 22°28' E 113°52'0 0.0
2014-Jul-18 13:29N 22°28' E 113°52'0 0.0
2014-Jul-18 11:31N 22°28' E 113°52'0 0.0
2014-Jul-18 09:33N 22°28' E 113°52'0 0.0
2014-Jul-18 08:33N 22°28' E 113°52'0 0.1
2014-Jul-18 07:33N 22°28' E 113°52'0 0.0
2014-Jul-18 06:33N 22°28' E 113°52'0 0.1
2014-Jul-18 05:33N 22°28' E 113°52'0 0.0
2014-Jul-18 04:33N 22°28' E 113°52'0 0.1
2014-Jul-18 03:33N 22°28' E 113°52'0 0.1
2014-Jul-18 02:33N 22°28' E 113°52'0 0.0
2014-Jul-18 01:33N 22°28' E 113°52'0 0.0
2014-Jul-18 00:33N 22°28' E 113°52'0 0.0
2014-Jul-17 23:09N 22°28' E 113°52'0 0.0
2014-Jul-17 21:31N 22°28' E 113°52'0 0.1
2014-Jul-17 20:33N 22°28' E 113°52'0 0.1
2014-Jul-17 19:32N 22°28' E 113°52'0 0.0
2014-Jul-17 18:33N 22°28' E 113°52'0 0.0
2014-Jul-17 17:28N 22°28' E 113°52'0 0.0
2014-Jul-17 16:30N 22°28' E 113°52'0 0.1
2014-Jul-17 15:33N 22°28' E 113°52'0 0.0
2014-Jul-17 14:32N 22°28' E 113°52'0 0.1
2014-Jul-17 13:30N 22°28' E 113°52'0 0.0
2014-Jul-17 11:22N 22°28' E 113°52'0 0.0
2014-Jul-17 09:33N 22°28' E 113°52'0 0.0
2014-Jul-17 08:32N 22°28' E 113°52'0 0.0
2014-Jul-17 07:33N 22°28' E 113°52'0 0.0
2014-Jul-17 06:33N 22°28' E 113°52'0 0.0
2014-Jul-17 05:33N 22°28' E 113°52'0 0.0
2014-Jul-17 04:33N 22°28' E 113°52'0 0.0
2014-Jul-17 03:33N 22°28' E 113°52'0 0.0
2014-Jul-17 02:33N 22°28' E 113°52'0 0.0
2014-Jul-17 01:32N 22°28' E 113°52'0 0.1
2014-Jul-17 00:33N 22°28' E 113°52'0 0.0
2014-Jul-16 19:18N 22°28' E 113°52'0 0.0
2014-Jul-16 18:03N 22°28' E 113°52'0 0.0
2014-Jul-16 17:29N 22°28' E 113°52'0 0.0
2014-Jul-16 13:31N 22°28' E 113°52'0 0.0
2014-Jul-16 10:14N 22°28' E 113°52'0 0.0
2014-Jul-16 09:33N 22°28' E 113°52'0 0.0
2014-Jul-16 08:33N 22°28' E 113°52'0 0.0
2014-Jul-16 07:33N 22°28' E 113°52'0 0.0
2014-Jul-16 06:33N 22°28' E 113°52'0 0.0
2014-Jul-16 05:33N 22°28' E 113°52'0 0.0
2014-Jul-16 04:33N 22°28' E 113°52'0 0.1
2014-Jul-16 03:33N 22°28' E 113°52'0 0.0
2014-Jul-16 02:33N 22°28' E 113°52'0 0.0
2014-Jul-16 01:33N 22°28' E 113°52'0 0.0
2014-Jul-16 00:33N 22°28' E 113°52'0 0.0
2014-Jul-15 23:16N 22°28' E 113°52'0 0.0
2014-Jul-15 22:10N 22°28' E 113°52'0 0.0
2014-Jul-15 18:26N 22°28' E 113°52'0 0.1
2014-Jul-15 17:27N 22°28' E 113°52'0 0.0
2014-Jul-15 16:04N 22°28' E 113°52'0 0.0
2014-Jul-15 09:33N 22°28' E 113°52'0 0.0
2014-Jul-15 08:30N 22°28' E 113°52'0 0.0
2014-Jul-15 07:32N 22°28' E 113°52'0 0.0
2014-Jul-15 06:33N 22°28' E 113°52'0 0.0
2014-Jul-15 05:33N 22°28' E 113°52'0 0.0
2014-Jul-15 04:33N 22°28' E 113°52'0 0.0
2014-Jul-15 03:33N 22°28' E 113°52'0 0.1
2014-Jul-15 02:33N 22°28' E 113°52'0 0.0
2014-Jul-15 01:33N 22°28' E 113°52'0 0.0
2014-Jul-15 00:33N 22°28' E 113°52'0 0.1
2014-Jul-14 23:28N 22°28' E 113°52'0 0.0
2014-Jul-14 12:06N 22°28' E 113°52'  

Dump ship's entire track history